createdAt,value
2019-01-24T00:00:14.919Z,-3.20
2019-01-24T00:02:43.135Z,-3.30
2019-01-24T00:05:11.345Z,-3.30
2019-01-24T00:07:39.579Z,-3.30
2019-01-24T00:10:11.042Z,-3.30
2019-01-24T00:12:39.243Z,-3.30
2019-01-24T00:15:09.008Z,-3.30
2019-01-24T00:17:37.218Z,-3.30
2019-01-24T00:20:08.150Z,-3.30
2019-01-24T00:22:36.378Z,-3.30
2019-01-24T00:25:07.704Z,-3.30
2019-01-24T00:27:35.935Z,-3.30
2019-01-24T00:30:11.096Z,-3.30
2019-01-24T00:32:39.287Z,-3.30
2019-01-24T00:35:08.326Z,-3.30
2019-01-24T00:37:36.547Z,-3.20
2019-01-24T00:40:13.754Z,-3.20
2019-01-24T00:42:42.001Z,-3.20
2019-01-24T00:45:10.201Z,-3.30
2019-01-24T00:47:38.402Z,-3.30
2019-01-24T00:50:09.280Z,-3.30
2019-01-24T00:52:37.469Z,-3.30
2019-01-24T00:55:09.110Z,-3.20
2019-01-24T00:57:37.326Z,-3.10
2019-01-24T01:00:14.590Z,-3.10
2019-01-24T01:02:42.914Z,-3.10
2019-01-24T01:05:12.588Z,-3.10
2019-01-24T01:07:40.785Z,-3.10
2019-01-24T01:10:10.151Z,-3.10
2019-01-24T01:12:38.440Z,-3.00
2019-01-24T01:15:09.787Z,-2.90
2019-01-24T01:17:38.016Z,-2.90
2019-01-24T01:20:11.863Z,-2.90
2019-01-24T01:22:40.062Z,-3.10
2019-01-24T01:25:10.304Z,-3.10
2019-01-24T01:27:38.502Z,-3.10
2019-01-24T01:30:09.962Z,-3.20
2019-01-24T01:32:38.182Z,-3.10
2019-01-24T01:35:06.815Z,-3.10
2019-01-24T01:37:37.702Z,-3.10
2019-01-24T01:40:09.263Z,-3.20
2019-01-24T01:42:37.453Z,-3.20
2019-01-24T01:45:08.783Z,-3.20
2019-01-24T01:47:37.018Z,-3.20
2019-01-24T01:50:08.485Z,-3.20
2019-01-24T01:52:36.675Z,-3.20
2019-01-24T01:55:05.867Z,-3.10
2019-01-24T01:57:34.070Z,-3.10
2019-01-24T02:00:02.271Z,-3.20
2019-01-24T02:02:30.508Z,-3.20
2019-01-24T02:04:58.705Z,-3.20
2019-01-24T02:07:26.910Z,-3.20
2019-01-24T02:09:55.150Z,-3.00
2019-01-24T02:12:23.359Z,-3.00
2019-01-24T02:14:51.555Z,-3.10
2019-01-24T02:17:21.026Z,-3.10
2019-01-24T02:19:49.252Z,-3.20
2019-01-24T02:22:17.485Z,-3.10
2019-01-24T02:24:45.746Z,-3.10
2019-01-24T02:27:13.983Z,-3.10
2019-01-24T02:29:42.206Z,-3.00
2019-01-24T02:32:10.463Z,-2.90
2019-01-24T02:34:39.452Z,-2.90
2019-01-24T02:37:07.685Z,-2.90
2019-01-24T02:39:35.968Z,-3.00
2019-01-24T02:42:04.201Z,-3.10
2019-01-24T02:44:32.437Z,-3.10
2019-01-24T02:47:00.700Z,-3.20
2019-01-24T02:49:28.942Z,-3.20
2019-01-24T02:51:57.180Z,-3.20
2019-01-24T02:54:25.452Z,-3.20
2019-01-24T02:56:53.676Z,-3.20
2019-01-24T02:59:21.904Z,-3.20
2019-01-24T03:01:50.160Z,-3.10
2019-01-24T03:04:18.387Z,-3.10
2019-01-24T03:06:46.637Z,-3.10
2019-01-24T03:09:14.896Z,-3.10
2019-01-24T03:11:43.132Z,-3.10
2019-01-24T03:14:11.414Z,-3.10
2019-01-24T03:16:39.675Z,-3.10
2019-01-24T03:19:07.915Z,-3.00
2019-01-24T03:21:36.151Z,-3.00
2019-01-24T03:24:04.404Z,-3.00
2019-01-24T03:26:32.624Z,-3.10
2019-01-24T03:29:00.851Z,-3.00
2019-01-24T03:31:29.515Z,-3.00
2019-01-24T03:33:57.744Z,-3.10
2019-01-24T03:36:26.747Z,-3.10
2019-01-24T03:38:55.008Z,-3.10
2019-01-24T03:41:23.236Z,-3.00
2019-01-24T03:43:51.465Z,-3.10
2019-01-24T03:46:19.738Z,-3.00
2019-01-24T03:48:47.984Z,-3.10
2019-01-24T03:51:16.215Z,-3.10
2019-01-24T03:53:44.480Z,-3.00
2019-01-24T03:56:12.729Z,-2.90
2019-01-24T03:58:41.259Z,-2.80
2019-01-24T04:01:09.544Z,-2.80
2019-01-24T04:03:37.783Z,-3.00
2019-01-24T04:06:06.036Z,-3.00
2019-01-24T04:08:34.291Z,-3.00
2019-01-24T04:11:02.527Z,-3.00
2019-01-24T04:13:30.851Z,-3.00
2019-01-24T04:15:59.109Z,-3.00
2019-01-24T04:18:27.342Z,-3.00
2019-01-24T04:20:55.585Z,-3.00
2019-01-24T04:23:23.871Z,-3.00
2019-01-24T04:25:52.108Z,-3.00
2019-01-24T04:28:20.351Z,-3.10
2019-01-24T04:30:48.612Z,-3.00
2019-01-24T04:33:16.842Z,-3.00
2019-01-24T04:35:45.064Z,-3.00
2019-01-24T04:38:14.182Z,-3.00
2019-01-24T04:40:42.409Z,-3.00
2019-01-24T04:43:10.678Z,-3.00
2019-01-24T04:45:38.935Z,-2.90
2019-01-24T04:48:07.164Z,-2.90
2019-01-24T04:50:35.398Z,-2.90
2019-01-24T04:53:03.664Z,-2.90
2019-01-24T04:55:31.904Z,-2.80
2019-01-24T04:58:00.137Z,-2.80
2019-01-24T05:00:29.833Z,-2.90
2019-01-24T05:02:58.079Z,-2.90
2019-01-24T05:05:27.820Z,-2.80
2019-01-24T05:07:56.463Z,-2.70
2019-01-24T05:10:24.932Z,-2.80
2019-01-24T05:12:53.178Z,-2.80
2019-01-24T05:15:21.448Z,-2.80
2019-01-24T05:17:49.673Z,-2.70
2019-01-24T05:20:17.907Z,-2.70
2019-01-24T05:22:46.213Z,-2.80
2019-01-24T05:25:16.099Z,-2.90
2019-01-24T05:27:44.392Z,-2.90
2019-01-24T05:30:15.909Z,-3.00
2019-01-24T05:32:44.135Z,-3.10
2019-01-24T05:35:12.369Z,-3.10
2019-01-24T05:37:40.653Z,-3.10
2019-01-24T05:40:10.020Z,-3.10
2019-01-24T05:42:38.284Z,-3.10
2019-01-24T05:45:09.757Z,-3.10
2019-01-24T05:47:37.984Z,-3.10
2019-01-24T05:50:09.162Z,-3.10
2019-01-24T05:52:37.517Z,-3.00
2019-01-24T05:55:07.917Z,-2.90
2019-01-24T05:57:36.149Z,-2.80
2019-01-24T06:00:10.400Z,-2.70
2019-01-24T06:02:38.636Z,-2.70
2019-01-24T06:05:09.089Z,-2.80
2019-01-24T06:07:37.348Z,-2.80
2019-01-24T06:10:08.879Z,-2.80
2019-01-24T06:12:37.122Z,-2.90
2019-01-24T06:15:08.998Z,-2.90
2019-01-24T06:17:37.355Z,-2.90
2019-01-24T06:20:07.840Z,-2.90
2019-01-24T06:22:37.205Z,-2.90
2019-01-24T06:25:08.443Z,-2.90
2019-01-24T06:27:36.771Z,-2.90
2019-01-24T06:30:16.685Z,-2.90
2019-01-24T06:32:45.070Z,-2.90
2019-01-24T06:35:13.308Z,-3.00
2019-01-24T06:37:41.592Z,-3.00
2019-01-24T06:40:12.197Z,-2.90
2019-01-24T06:42:40.452Z,-2.80
2019-01-24T06:45:22.192Z,-2.80
2019-01-24T06:47:50.452Z,-2.80
2019-01-24T06:50:19.657Z,-2.70
2019-01-24T06:52:47.896Z,-2.70
2019-01-24T06:55:24.908Z,-2.60
2019-01-24T06:57:53.147Z,-2.70
2019-01-24T07:00:21.428Z,-2.60
2019-01-24T07:02:49.667Z,-2.60
2019-01-24T07:05:17.912Z,-2.70
2019-01-24T07:07:46.181Z,-2.80
2019-01-24T07:10:16.344Z,-2.80
2019-01-24T07:12:44.646Z,-2.80
2019-01-24T07:15:15.196Z,-2.90
2019-01-24T07:17:43.459Z,-2.80
2019-01-24T07:20:13.932Z,-2.70
2019-01-24T07:22:42.181Z,-2.60
2019-01-24T07:25:13.072Z,-2.60
2019-01-24T07:27:41.305Z,-2.70
2019-01-24T07:30:17.334Z,-2.70
2019-01-24T07:32:45.579Z,-2.70
2019-01-24T07:35:15.572Z,-2.60
2019-01-24T07:37:43.799Z,-2.60
2019-01-24T07:40:16.764Z,-2.60
2019-01-24T07:42:45.004Z,-2.50
2019-01-24T07:45:16.057Z,-2.60
2019-01-24T07:47:44.302Z,-2.60
2019-01-24T07:50:13.672Z,-2.50
2019-01-24T07:52:41.941Z,-2.50
2019-01-24T07:55:11.911Z,-2.50
2019-01-24T07:57:40.724Z,-2.50
2019-01-24T08:00:14.848Z,-2.40
2019-01-24T08:02:43.105Z,-2.40
2019-01-24T08:05:13.176Z,-2.40
2019-01-24T08:07:41.424Z,-2.20
2019-01-24T08:10:15.332Z,-2.20
2019-01-24T08:12:43.595Z,-2.20
2019-01-24T08:15:16.584Z,-2.20
2019-01-24T08:17:44.840Z,-2.20
2019-01-24T08:20:15.357Z,-2.20
2019-01-24T08:22:43.666Z,-2.10
2019-01-24T08:25:12.012Z,-2.10
2019-01-24T08:27:40.235Z,-2.10
2019-01-24T08:30:11.744Z,-2.10
2019-01-24T08:32:39.968Z,-2.00
2019-01-24T08:35:09.224Z,-2.00
2019-01-24T08:37:37.435Z,-1.90
2019-01-24T08:40:08.924Z,-1.80
2019-01-24T08:42:37.163Z,-1.80
2019-01-24T08:45:08.034Z,-1.90
2019-01-24T08:47:36.292Z,-1.80
2019-01-24T08:50:08.028Z,-1.70
2019-01-24T08:52:36.281Z,-1.50
2019-01-24T08:55:07.927Z,-1.30
2019-01-24T08:57:36.181Z,-1.20
2019-01-24T09:00:10.537Z,-1.10
2019-01-24T09:02:38.780Z,-1.00
2019-01-24T09:05:07.588Z,-1.00
2019-01-24T09:07:35.809Z,-0.90
2019-01-24T09:10:07.002Z,-0.90
2019-01-24T09:12:35.227Z,-0.90
2019-01-24T09:15:03.552Z,-0.80
2019-01-24T09:17:31.781Z,-0.80
2019-01-24T09:20:00.048Z,-0.80
2019-01-24T09:22:28.272Z,-0.70
2019-01-24T09:24:56.495Z,-0.60
2019-01-24T09:27:24.753Z,-0.40
2019-01-24T09:29:52.996Z,-0.10
2019-01-24T09:32:21.256Z,0.00
2019-01-24T09:34:49.485Z,0.00
2019-01-24T09:37:17.723Z,0.10
2019-01-24T09:39:45.948Z,0.30
2019-01-24T09:42:14.708Z,0.50
2019-01-24T09:44:43.159Z,0.70
2019-01-24T09:47:11.383Z,0.90
2019-01-24T09:49:39.637Z,1.20
2019-01-24T09:52:07.872Z,1.30
2019-01-24T09:54:36.136Z,1.30
2019-01-24T09:57:04.375Z,1.40
2019-01-24T09:59:32.645Z,1.40
2019-01-24T10:02:00.879Z,1.70
2019-01-24T10:04:29.156Z,1.90
2019-01-24T10:06:57.425Z,1.90
2019-01-24T10:09:25.648Z,2.30
2019-01-24T10:11:53.892Z,2.70
2019-01-24T10:14:22.127Z,3.30
2019-01-24T10:16:50.372Z,3.40
2019-01-24T10:19:18.588Z,3.00
2019-01-24T10:21:46.848Z,2.80
2019-01-24T10:24:15.085Z,2.80
2019-01-24T10:26:43.338Z,2.60
2019-01-24T10:29:11.604Z,2.70
2019-01-24T10:31:39.852Z,2.70
2019-01-24T10:34:08.196Z,2.80
2019-01-24T10:36:42.828Z,2.70
2019-01-24T10:39:08.339Z,2.80
2019-01-24T10:41:36.561Z,2.80
2019-01-24T10:44:04.811Z,2.60
2019-01-24T10:46:33.039Z,2.50
2019-01-24T10:49:01.544Z,2.60
2019-01-24T10:51:29.785Z,2.90
2019-01-24T10:53:58.000Z,3.20
2019-01-24T10:56:26.256Z,3.60
2019-01-24T10:58:54.729Z,4.40
2019-01-24T11:01:22.993Z,5.70
2019-01-24T11:03:51.211Z,5.90
2019-01-24T11:06:19.490Z,5.70
2019-01-24T11:08:47.717Z,5.00
2019-01-24T11:11:15.966Z,4.30
2019-01-24T11:13:44.255Z,3.90
2019-01-24T11:16:12.488Z,3.80
2019-01-24T11:18:40.768Z,4.20
2019-01-24T11:21:08.974Z,4.20
2019-01-24T11:23:37.245Z,3.80
2019-01-24T11:26:05.467Z,3.80
2019-01-24T11:28:33.759Z,3.50
2019-01-24T11:31:02.065Z,3.40
2019-01-24T11:33:30.636Z,3.80
2019-01-24T11:35:58.892Z,4.20
2019-01-24T11:38:27.109Z,4.40
2019-01-24T11:40:55.490Z,4.40
2019-01-24T11:43:23.701Z,3.90
2019-01-24T11:45:51.953Z,3.50
2019-01-24T11:48:20.189Z,3.50
2019-01-24T11:50:48.424Z,3.00
2019-01-24T11:53:16.664Z,2.80
2019-01-24T11:55:44.906Z,3.00
2019-01-24T11:58:13.180Z,3.10
2019-01-24T12:00:43.112Z,3.00
2019-01-24T12:03:11.351Z,2.50
2019-01-24T12:05:39.582Z,2.20
2019-01-24T12:08:07.915Z,2.10
2019-01-24T12:10:36.139Z,1.90
2019-01-24T12:13:04.423Z,2.00
2019-01-24T12:15:32.670Z,2.10
2019-01-24T12:18:00.908Z,1.90
2019-01-24T12:20:29.577Z,1.60
2019-01-24T12:22:57.829Z,1.40
2019-01-24T12:28:08.897Z,1.00
2019-01-24T12:30:37.322Z,1.10
2019-01-24T12:33:05.817Z,0.90
2019-01-24T12:35:34.128Z,0.70
2019-01-24T12:38:02.394Z,0.70
2019-01-24T12:40:30.710Z,0.60
2019-01-24T12:42:58.990Z,0.50
2019-01-24T12:45:32.312Z,0.50
2019-01-24T12:48:00.575Z,0.40
2019-01-24T12:50:28.834Z,0.40
2019-01-24T12:52:57.081Z,0.50
2019-01-24T12:55:25.612Z,0.40
2019-01-24T12:57:53.921Z,0.50
2019-01-24T13:00:27.668Z,0.50
2019-01-24T13:02:55.968Z,0.60
2019-01-24T13:05:24.280Z,0.70
2019-01-24T13:07:52.490Z,0.70
2019-01-24T13:10:22.592Z,0.80
2019-01-24T13:12:50.906Z,0.90
2019-01-24T13:15:21.526Z,1.00
2019-01-24T13:17:49.816Z,1.00
2019-01-24T13:20:18.086Z,1.10
2019-01-24T13:22:46.343Z,1.20
2019-01-24T13:25:17.433Z,1.20
2019-01-24T13:27:45.681Z,1.30
2019-01-24T13:30:16.826Z,1.40
2019-01-24T13:32:45.071Z,1.40
2019-01-24T13:35:13.339Z,1.30
2019-01-24T13:37:41.668Z,1.30
2019-01-24T13:40:13.035Z,1.00
2019-01-24T13:42:41.374Z,1.00
2019-01-24T13:45:12.703Z,1.00
2019-01-24T13:47:40.928Z,0.90
2019-01-24T13:50:12.118Z,1.00
2019-01-24T13:52:40.349Z,1.00
2019-01-24T13:55:08.669Z,0.90
2019-01-24T13:57:37.012Z,0.70
2019-01-24T14:00:14.665Z,0.70
2019-01-24T14:02:42.901Z,0.80
2019-01-24T14:05:14.402Z,0.90
2019-01-24T14:07:42.648Z,0.80
2019-01-24T14:10:13.880Z,0.80
2019-01-24T14:12:42.108Z,0.90
2019-01-24T14:15:15.955Z,1.00
2019-01-24T14:17:44.283Z,1.00
2019-01-24T14:20:15.509Z,1.10
2019-01-24T14:22:43.776Z,0.90
2019-01-24T14:25:17.295Z,0.90
2019-01-24T14:27:45.547Z,0.90
2019-01-24T14:30:19.382Z,0.80
2019-01-24T14:32:47.648Z,0.70
2019-01-24T14:35:15.904Z,0.50
2019-01-24T14:37:44.217Z,0.40
2019-01-24T14:40:14.037Z,0.30
2019-01-24T14:42:42.342Z,0.20
2019-01-24T14:45:19.880Z,0.10
2019-01-24T14:47:48.106Z,0.00
2019-01-24T14:50:19.061Z,-0.10
2019-01-24T14:52:47.297Z,-0.20
2019-01-24T14:55:15.585Z,-0.20
2019-01-24T14:57:44.031Z,-0.20
2019-01-24T15:00:21.657Z,-0.30
2019-01-24T15:02:49.887Z,-0.40
2019-01-24T15:05:18.115Z,-0.50
2019-01-24T15:07:47.490Z,-0.60
2019-01-24T15:10:15.988Z,-0.70
2019-01-24T15:12:44.239Z,-0.70
2019-01-24T15:15:15.985Z,-0.70
2019-01-24T15:17:44.204Z,-0.70
2019-01-24T15:20:14.090Z,-0.80
2019-01-24T15:22:42.340Z,-0.70
2019-01-24T15:25:12.545Z,-0.80
2019-01-24T15:27:40.804Z,-0.80
2019-01-24T15:30:14.772Z,-0.80
2019-01-24T15:32:43.034Z,-0.90
2019-01-24T15:35:11.308Z,-0.90
2019-01-24T15:37:39.546Z,-1.00
2019-01-24T15:40:19.550Z,-1.00
2019-01-24T15:42:47.805Z,-1.00
2019-01-24T15:45:17.076Z,-0.90
2019-01-24T15:47:45.413Z,-1.00
2019-01-24T15:50:16.196Z,-1.00
2019-01-24T15:52:44.453Z,-1.00
2019-01-24T15:55:12.715Z,-1.00
2019-01-24T15:57:40.981Z,-1.10
2019-01-24T16:00:18.161Z,-1.10
2019-01-24T16:02:46.393Z,-1.10
2019-01-24T16:05:14.727Z,-1.10
2019-01-24T16:07:42.960Z,-0.90
2019-01-24T16:10:14.051Z,-1.00
2019-01-24T16:12:42.287Z,-1.00
2019-01-24T16:15:20.040Z,-1.00
2019-01-24T16:17:48.265Z,-0.90
2019-01-24T16:20:19.399Z,-1.00
2019-01-24T16:22:47.700Z,-1.00
2019-01-24T16:25:17.999Z,-1.10
2019-01-24T16:27:46.261Z,-1.10
2019-01-24T16:30:19.395Z,-1.10
2019-01-24T16:32:47.736Z,-1.20
2019-01-24T16:35:17.716Z,-1.30
2019-01-24T16:37:45.971Z,-1.40
2019-01-24T16:40:22.794Z,-1.30
2019-01-24T16:42:51.048Z,-1.40
2019-01-24T16:45:21.364Z,-1.40
2019-01-24T16:47:49.590Z,-1.30
2019-01-24T16:50:19.494Z,-1.30
2019-01-24T16:52:47.773Z,-1.30
2019-01-24T16:55:17.534Z,-1.30
2019-01-24T16:57:46.993Z,-1.30
2019-01-24T17:00:28.947Z,-1.40
2019-01-24T17:02:57.274Z,-1.40
2019-01-24T17:05:25.511Z,-1.40
2019-01-24T17:07:53.780Z,-1.40
2019-01-24T17:10:27.621Z,-1.50
2019-01-24T17:12:55.883Z,-1.50
2019-01-24T17:15:24.123Z,-1.60
2019-01-24T17:17:52.465Z,-1.60
2019-01-24T17:20:23.422Z,-1.50
2019-01-24T17:22:52.044Z,-1.60
2019-01-24T17:25:21.231Z,-1.70
2019-01-24T17:27:49.470Z,-1.70
2019-01-24T17:30:20.763Z,-1.80
2019-01-24T17:32:49.003Z,-1.80
2019-01-24T17:35:17.266Z,-1.70
2019-01-24T17:37:45.503Z,-1.80
2019-01-24T17:40:25.607Z,-1.80
2019-01-24T17:42:53.838Z,-1.90
2019-01-24T17:45:22.168Z,-2.00
2019-01-24T17:47:50.464Z,-2.00
2019-01-24T17:50:18.783Z,-2.00
2019-01-24T17:52:47.163Z,-2.00
2019-01-24T17:55:27.168Z,-2.00
2019-01-24T17:57:55.444Z,-2.10
2019-01-24T18:00:25.484Z,-2.20
2019-01-24T18:02:53.752Z,-2.30
2019-01-24T18:05:22.081Z,-2.30
2019-01-24T18:07:50.327Z,-2.30
2019-01-24T18:10:27.152Z,-2.30
2019-01-24T18:12:55.435Z,-2.30
2019-01-24T18:15:25.677Z,-2.30
2019-01-24T18:17:53.920Z,-2.40
2019-01-24T18:20:33.682Z,-2.40
2019-01-24T18:23:02.104Z,-2.40
2019-01-24T18:25:30.356Z,-2.40
2019-01-24T18:27:58.584Z,-2.40
2019-01-24T18:30:28.395Z,-2.40
2019-01-24T18:32:56.633Z,-2.40
2019-01-24T18:35:25.048Z,-2.50
2019-01-24T18:37:53.308Z,-2.50
2019-01-24T18:40:26.405Z,-2.50
2019-01-24T18:42:55.207Z,-2.50
2019-01-24T18:45:41.476Z,-2.50
2019-01-24T18:48:09.744Z,-2.60
2019-01-24T18:50:38.017Z,-2.60
2019-01-24T18:53:06.303Z,-2.70
2019-01-24T18:55:37.201Z,-2.60
2019-01-24T18:58:05.786Z,-2.60
2019-01-24T19:00:38.398Z,-2.60
2019-01-24T19:03:07.580Z,-2.60
2019-01-24T19:05:35.890Z,-2.70
2019-01-24T19:08:04.351Z,-2.70
2019-01-24T19:10:32.585Z,-2.70
2019-01-24T19:13:00.861Z,-2.70
2019-01-24T19:15:29.148Z,-2.70
2019-01-24T19:17:57.378Z,-2.60
2019-01-24T19:20:25.614Z,-2.60
2019-01-24T19:22:53.881Z,-2.70
2019-01-24T19:25:22.803Z,-2.60
2019-01-24T19:27:51.067Z,-2.60
2019-01-24T19:30:31.208Z,-2.70
2019-01-24T19:32:59.520Z,-2.70
2019-01-24T19:35:27.812Z,-2.70
2019-01-24T19:37:56.095Z,-2.70
2019-01-24T19:40:28.952Z,-2.70
2019-01-24T19:42:57.180Z,-2.70
2019-01-24T19:45:26.806Z,-2.70
2019-01-24T19:47:55.066Z,-2.80
2019-01-24T19:50:25.452Z,-2.70
2019-01-24T19:52:53.807Z,-2.70
2019-01-24T19:55:22.076Z,-2.70
2019-01-24T19:57:50.308Z,-2.70
2019-01-24T20:00:27.668Z,-2.70
2019-01-24T20:02:55.976Z,-2.70
2019-01-24T20:05:24.221Z,-2.70
2019-01-24T20:07:52.503Z,-2.70
2019-01-24T20:10:23.352Z,-2.80
2019-01-24T20:12:51.604Z,-2.90
2019-01-24T20:15:21.625Z,-2.90
2019-01-24T20:17:49.862Z,-2.90
2019-01-24T20:20:18.443Z,-2.90
2019-01-24T20:22:46.881Z,-3.00
2019-01-24T20:25:17.555Z,-3.00
2019-01-24T20:27:45.787Z,-3.00
2019-01-24T20:30:19.088Z,-3.00
2019-01-24T20:32:47.325Z,-2.90
2019-01-24T20:35:40.608Z,-3.00
2019-01-24T20:38:10.484Z,-3.00
2019-01-24T20:40:39.053Z,-3.00
2019-01-24T20:43:10.757Z,-3.00
2019-01-24T20:45:39.300Z,-3.00
2019-01-24T20:48:07.529Z,-3.00
2019-01-24T20:50:35.817Z,-3.00
2019-01-24T20:53:04.454Z,-3.00
2019-01-24T20:55:32.731Z,-2.90
2019-01-24T20:58:00.961Z,-3.00
2019-01-24T21:00:29.240Z,-3.00
2019-01-24T21:02:57.485Z,-3.00
2019-01-24T21:05:26.036Z,-3.00
2019-01-24T21:07:54.307Z,-3.00
2019-01-24T21:10:46.297Z,-3.00
2019-01-24T21:13:14.849Z,-3.00
2019-01-24T21:15:43.992Z,-3.10
2019-01-24T21:18:12.293Z,-3.00
2019-01-24T21:20:40.535Z,-3.00
2019-01-24T21:23:08.777Z,-3.00
2019-01-24T21:25:37.045Z,-3.00
2019-01-24T21:28:05.364Z,-3.10
2019-01-24T21:30:35.573Z,-3.10
2019-01-24T21:33:04.363Z,-3.10
2019-01-24T21:35:32.628Z,-3.10
2019-01-24T21:38:01.009Z,-3.10
2019-01-24T21:40:29.271Z,-3.20
2019-01-24T21:42:57.504Z,-3.20
2019-01-24T21:45:28.546Z,-3.30
2019-01-24T21:47:56.804Z,-3.30
2019-01-24T21:50:27.298Z,-3.30
2019-01-24T21:52:55.568Z,-3.20
2019-01-24T21:55:23.860Z,-3.30
2019-01-24T21:57:52.156Z,-3.30
2019-01-24T22:00:22.324Z,-3.30
2019-01-24T22:02:50.598Z,-3.40
2019-01-24T22:05:18.973Z,-3.30
2019-01-24T22:07:47.211Z,-3.30
2019-01-24T22:10:17.936Z,-3.30
2019-01-24T22:12:46.176Z,-3.20
2019-01-24T22:15:16.872Z,-3.20
2019-01-24T22:17:45.129Z,-3.40
2019-01-24T22:20:14.937Z,-3.40
2019-01-24T22:22:43.171Z,-3.40
2019-01-24T22:25:22.664Z,-3.40
2019-01-24T22:27:50.928Z,-3.40
2019-01-24T22:30:29.361Z,-3.40
2019-01-24T22:32:57.659Z,-3.50
2019-01-24T22:35:25.911Z,-3.50
2019-01-24T22:37:54.176Z,-3.60
2019-01-24T22:40:22.412Z,-3.60
2019-01-24T22:42:50.693Z,-3.60
2019-01-24T22:45:21.161Z,-3.60
2019-01-24T22:47:49.423Z,-3.60
2019-01-24T22:50:17.656Z,-3.60
2019-01-24T22:52:46.740Z,-3.60
2019-01-24T22:55:15.002Z,-3.60
2019-01-24T22:57:43.232Z,-3.60
2019-01-24T23:00:19.153Z,-3.60
2019-01-24T23:02:47.380Z,-3.60
2019-01-24T23:05:15.686Z,-3.70
2019-01-24T23:07:43.923Z,-3.70
2019-01-24T23:10:12.168Z,-3.70
2019-01-24T23:12:40.432Z,-3.70
2019-01-24T23:15:10.910Z,-3.70
2019-01-24T23:17:39.137Z,-3.70
2019-01-24T23:20:10.352Z,-3.70
2019-01-24T23:22:38.580Z,-3.80
2019-01-24T23:25:06.828Z,-3.80
2019-01-24T23:27:35.092Z,-3.80
2019-01-24T23:30:05.001Z,-3.80
2019-01-24T23:32:33.245Z,-3.80
2019-01-24T23:35:01.531Z,-3.90
2019-01-24T23:37:29.768Z,-3.90
2019-01-24T23:39:58.008Z,-3.90
2019-01-24T23:42:26.299Z,-3.80
2019-01-24T23:44:54.548Z,-3.90
2019-01-24T23:47:22.846Z,-3.90
2019-01-24T23:49:51.108Z,-3.90
2019-01-24T23:52:19.346Z,-3.90
2019-01-24T23:54:47.575Z,-4.00
2019-01-24T23:57:15.852Z,-4.00
2019-01-24T23:59:44.088Z,-4.00
